createdAt,value
2023-05-05T00:00:19.487Z,925.00
2023-05-05T00:01:19.506Z,907.00
2023-05-05T00:02:19.608Z,914.00
2023-05-05T00:03:19.693Z,922.00
2023-05-05T00:04:19.681Z,927.00
2023-05-05T00:05:19.695Z,922.00
2023-05-05T00:06:19.736Z,889.00
2023-05-05T00:07:19.778Z,876.00
2023-05-05T00:08:19.814Z,883.00
2023-05-05T00:09:19.868Z,848.00
2023-05-05T00:10:19.894Z,837.00
2023-05-05T00:11:19.931Z,839.00
2023-05-05T00:12:19.996Z,843.00
2023-05-05T00:13:20.041Z,839.00
2023-05-05T00:14:20.065Z,852.00
2023-05-05T00:15:20.139Z,824.00
2023-05-05T00:16:20.282Z,809.00
2023-05-05T00:17:20.252Z,821.00
2023-05-05T00:18:20.291Z,824.00
2023-05-05T00:19:20.370Z,826.00
2023-05-05T00:20:20.391Z,828.00
2023-05-05T00:21:20.457Z,833.00
2023-05-05T00:22:20.490Z,851.00
2023-05-05T00:23:20.560Z,852.00
2023-05-05T00:24:20.588Z,844.00
2023-05-05T00:25:20.631Z,853.00
2023-05-05T00:26:20.698Z,828.00
2023-05-05T00:27:20.733Z,840.00
2023-05-05T00:28:20.785Z,842.00
2023-05-05T00:29:20.850Z,826.00
2023-05-05T00:30:20.875Z,832.00
2023-05-05T00:31:20.963Z,835.00
2023-05-05T00:32:20.978Z,845.00
2023-05-05T00:33:20.998Z,830.00
2023-05-05T00:34:21.070Z,819.00
2023-05-05T00:35:21.116Z,833.00
2023-05-05T00:36:21.132Z,821.00
2023-05-05T00:37:21.204Z,845.00
2023-05-05T00:38:21.238Z,833.00
2023-05-05T00:39:21.296Z,861.00
2023-05-05T00:40:21.317Z,852.00
2023-05-05T00:41:21.360Z,833.00
2023-05-05T00:42:21.438Z,814.00
2023-05-05T00:43:21.483Z,812.00
2023-05-05T00:44:21.521Z,832.00
2023-05-05T00:45:21.577Z,825.00
2023-05-05T00:46:21.662Z,824.00
2023-05-05T00:47:21.717Z,838.00
2023-05-05T00:48:21.754Z,840.00
2023-05-05T00:49:21.832Z,832.00
2023-05-05T00:50:21.869Z,858.00
2023-05-05T00:51:21.897Z,836.00
2023-05-05T00:52:21.940Z,853.00
2023-05-05T00:53:21.996Z,866.00
2023-05-05T00:54:22.042Z,870.00
2023-05-05T00:55:22.066Z,877.00
2023-05-05T00:56:22.173Z,873.00
2023-05-05T00:57:22.164Z,882.00
2023-05-05T00:58:22.216Z,871.00
2023-05-05T00:59:22.245Z,876.00
2023-05-05T01:00:22.287Z,879.00
2023-05-05T01:01:22.370Z,894.00
2023-05-05T01:02:22.391Z,872.00
2023-05-05T01:03:22.530Z,884.00
2023-05-05T01:04:22.497Z,897.00
2023-05-05T01:05:22.527Z,893.00
2023-05-05T01:06:22.590Z,874.00
2023-05-05T01:07:22.671Z,884.00
2023-05-05T01:08:22.693Z,893.00
2023-05-05T01:09:22.774Z,915.00
2023-05-05T01:10:23.001Z,904.00
2023-05-05T01:11:22.834Z,907.00
2023-05-05T01:12:22.921Z,890.00
2023-05-05T01:13:22.929Z,904.00
2023-05-05T01:14:22.968Z,894.00
2023-05-05T01:15:23.038Z,884.00
2023-05-05T01:16:23.098Z,895.00
2023-05-05T01:17:23.180Z,878.00
2023-05-05T01:18:23.204Z,863.00
2023-05-05T01:19:23.269Z,869.00
2023-05-05T01:20:23.293Z,861.00
2023-05-05T01:21:23.386Z,880.00
2023-05-05T01:22:23.402Z,882.00
2023-05-05T01:23:23.440Z,887.00
2023-05-05T01:24:23.517Z,868.00
2023-05-05T01:25:23.569Z,904.00
2023-05-05T01:26:23.601Z,889.00
2023-05-05T01:27:23.637Z,871.00
2023-05-05T01:28:23.687Z,880.00
2023-05-05T01:29:23.749Z,890.00
2023-05-05T01:30:23.763Z,900.00
2023-05-05T01:31:23.891Z,889.00
2023-05-05T01:32:23.948Z,888.00
2023-05-05T01:33:23.981Z,878.00
2023-05-05T01:34:24.045Z,899.00
2023-05-05T01:35:24.100Z,904.00
2023-05-05T01:36:24.159Z,909.00
2023-05-05T01:37:24.226Z,907.00
2023-05-05T01:38:24.285Z,930.00
2023-05-05T01:39:24.314Z,910.00
2023-05-05T01:40:24.387Z,899.00
2023-05-05T01:41:24.446Z,897.00
2023-05-05T01:42:24.473Z,909.00
2023-05-05T01:43:24.538Z,900.00
2023-05-05T01:44:24.614Z,908.00
2023-05-05T01:45:24.640Z,917.00
2023-05-05T01:46:24.733Z,919.00
2023-05-05T01:47:24.824Z,938.00
2023-05-05T01:48:24.866Z,946.00
2023-05-05T01:49:24.889Z,935.00
2023-05-05T01:50:24.938Z,922.00
2023-05-05T01:51:24.994Z,920.00
2023-05-05T01:52:25.061Z,925.00
2023-05-05T01:53:25.120Z,916.00
2023-05-05T01:54:25.184Z,906.00
2023-05-05T01:55:25.230Z,924.00
2023-05-05T01:56:25.245Z,920.00
2023-05-05T01:57:25.338Z,935.00
2023-05-05T01:58:25.379Z,937.00
2023-05-05T01:59:25.385Z,922.00
2023-05-05T02:00:25.474Z,939.00
2023-05-05T02:01:25.576Z,937.00
2023-05-05T02:02:25.652Z,927.00
2023-05-05T02:03:25.646Z,934.00
2023-05-05T02:04:25.693Z,944.00
2023-05-05T02:05:25.743Z,943.00
2023-05-05T02:06:25.810Z,935.00
2023-05-05T02:07:25.849Z,934.00
2023-05-05T02:08:25.899Z,924.00
2023-05-05T02:09:25.936Z,912.00
2023-05-05T02:10:26.004Z,920.00
2023-05-05T02:11:26.090Z,923.00
2023-05-05T02:12:26.123Z,927.00
2023-05-05T02:13:26.267Z,924.00
2023-05-05T02:14:26.240Z,932.00
2023-05-05T02:15:26.321Z,935.00
2023-05-05T02:16:26.387Z,946.00
2023-05-05T02:17:26.478Z,939.00
2023-05-05T02:18:26.592Z,942.00
2023-05-05T02:19:26.579Z,958.00
2023-05-05T02:20:26.661Z,968.00
2023-05-05T02:21:26.715Z,969.00
2023-05-05T02:22:26.782Z,980.00
2023-05-05T02:23:26.838Z,988.00
2023-05-05T02:24:26.876Z,993.00
2023-05-05T02:25:26.953Z,985.00
2023-05-05T02:26:26.999Z,1014.00
2023-05-05T02:27:27.067Z,1022.00
2023-05-05T02:28:27.117Z,1014.00
2023-05-05T02:29:27.196Z,1022.00
2023-05-05T02:30:27.252Z,1006.00
2023-05-05T02:31:27.458Z,1011.00
2023-05-05T02:32:27.361Z,1014.00
2023-05-05T02:33:27.430Z,1027.00
2023-05-05T02:34:27.470Z,1041.00
2023-05-05T02:35:27.511Z,1031.00
2023-05-05T02:36:27.593Z,1049.00
2023-05-05T02:37:27.663Z,1048.00
2023-05-05T02:38:27.701Z,1045.00
2023-05-05T02:39:27.785Z,1029.00
2023-05-05T02:40:27.844Z,1045.00
2023-05-05T02:41:27.928Z,1042.00
2023-05-05T02:42:27.961Z,1031.00
2023-05-05T02:43:28.030Z,1019.00
2023-05-05T02:44:28.095Z,1037.00
2023-05-05T02:45:28.123Z,1036.00
2023-05-05T02:46:28.254Z,1032.00
2023-05-05T02:47:28.290Z,1027.00
2023-05-05T02:48:28.277Z,1036.00
2023-05-05T02:49:28.319Z,1027.00
2023-05-05T02:50:28.420Z,1025.00
2023-05-05T02:51:28.456Z,1047.00
2023-05-05T02:52:28.516Z,1041.00
2023-05-05T02:53:28.611Z,1050.00
2023-05-05T02:54:28.650Z,1077.00
2023-05-05T02:55:28.716Z,1079.00
2023-05-05T02:56:28.746Z,1081.00
2023-05-05T02:57:28.775Z,1094.00
2023-05-05T02:58:28.846Z,1113.00
2023-05-05T02:59:28.900Z,1105.00
2023-05-05T03:00:28.995Z,1123.00
2023-05-05T03:01:29.055Z,1121.00
2023-05-05T03:02:29.149Z,1145.00
2023-05-05T03:03:29.231Z,1139.00
2023-05-05T03:04:29.185Z,1150.00
2023-05-05T03:05:29.275Z,1128.00
2023-05-05T03:06:29.289Z,1141.00
2023-05-05T03:07:29.343Z,1130.00
2023-05-05T03:08:29.411Z,1140.00
2023-05-05T03:09:29.445Z,1142.00
2023-05-05T03:10:29.509Z,1135.00
2023-05-05T03:11:29.575Z,1121.00
2023-05-05T03:12:29.665Z,1122.00
2023-05-05T03:13:29.618Z,1108.00
2023-05-05T03:14:32.093Z,1132.00
2023-05-05T03:15:29.727Z,1129.00
2023-05-05T03:16:29.787Z,1085.00
2023-05-05T03:17:29.826Z,1092.00
2023-05-05T03:18:29.821Z,1074.00
2023-05-05T03:19:29.836Z,1073.00
2023-05-05T03:20:29.820Z,1061.00
2023-05-05T03:21:29.856Z,1052.00
2023-05-05T03:22:29.873Z,1042.00
2023-05-05T03:23:30.001Z,1035.00
2023-05-05T03:24:29.943Z,1033.00
2023-05-05T03:25:29.975Z,1032.00
2023-05-05T03:26:29.963Z,1032.00
2023-05-05T03:27:29.970Z,1060.00
2023-05-05T03:28:29.982Z,1036.00
2023-05-05T03:29:30.046Z,1062.00
2023-05-05T03:30:30.072Z,1041.00
2023-05-05T03:31:30.083Z,1060.00
2023-05-05T03:32:30.139Z,1054.00
2023-05-05T03:33:31.095Z,1058.00
2023-05-05T03:34:30.128Z,1061.00
2023-05-05T03:35:30.143Z,1059.00
2023-05-05T03:36:30.192Z,1059.00
2023-05-05T03:37:30.216Z,1065.00
2023-05-05T03:38:30.225Z,1087.00
2023-05-05T03:39:30.255Z,1075.00
2023-05-05T03:40:43.104Z,1092.00
2023-05-05T03:41:31.305Z,1092.00
2023-05-05T03:42:30.317Z,1092.00
2023-05-05T03:43:30.321Z,1084.00
2023-05-05T03:44:30.331Z,1085.00
2023-05-05T03:45:30.416Z,1107.00
2023-05-05T03:46:30.381Z,1078.00
2023-05-05T03:47:30.385Z,1096.00
2023-05-05T03:48:30.453Z,1102.00
2023-05-05T03:49:30.425Z,1104.00
2023-05-05T03:50:30.475Z,1104.00
2023-05-05T03:51:30.469Z,1124.00
2023-05-05T03:52:30.545Z,1106.00
2023-05-05T03:53:30.553Z,1098.00
2023-05-05T03:54:30.549Z,1107.00
2023-05-05T03:55:30.586Z,1112.00
2023-05-05T03:56:30.572Z,1113.00
2023-05-05T03:57:30.633Z,1132.00
2023-05-05T03:58:30.646Z,1123.00
2023-05-05T03:59:30.718Z,1111.00
2023-05-05T04:00:30.768Z,1104.00
2023-05-05T04:01:30.783Z,1087.00
2023-05-05T04:02:30.936Z,1089.00
2023-05-05T04:03:31.136Z,1104.00
2023-05-05T04:04:30.993Z,1120.00
2023-05-05T04:05:31.013Z,1110.00
2023-05-05T04:06:31.034Z,1088.00
2023-05-05T04:07:31.092Z,1089.00
2023-05-05T04:08:31.156Z,1090.00
2023-05-05T04:09:31.154Z,1060.00
2023-05-05T04:10:31.223Z,1055.00
2023-05-05T04:11:31.266Z,1052.00
2023-05-05T04:12:31.309Z,1066.00
2023-05-05T04:13:31.376Z,1065.00
2023-05-05T04:14:31.421Z,1074.00
2023-05-05T04:15:31.454Z,1082.00
2023-05-05T04:16:31.608Z,1083.00
2023-05-05T04:17:31.557Z,1079.00
2023-05-05T04:18:31.585Z,1081.00
2023-05-05T04:19:31.609Z,1079.00
2023-05-05T04:20:31.656Z,1089.00
2023-05-05T04:21:31.719Z,1083.00
2023-05-05T04:22:31.742Z,1079.00
2023-05-05T04:23:31.822Z,1078.00
2023-05-05T04:24:31.874Z,1082.00
2023-05-05T04:25:31.900Z,1079.00
2023-05-05T04:26:31.944Z,1090.00
2023-05-05T04:27:31.951Z,1090.00
2023-05-05T04:28:32.022Z,1112.00
2023-05-05T04:29:32.127Z,1108.00
2023-05-05T04:30:32.096Z,1115.00
2023-05-05T04:31:32.200Z,1090.00
2023-05-05T04:32:32.196Z,1090.00
2023-05-05T04:33:32.231Z,1083.00
2023-05-05T04:34:32.276Z,1099.00
2023-05-05T04:35:32.296Z,1097.00
2023-05-05T04:36:32.366Z,1090.00
2023-05-05T04:37:32.401Z,1103.00
2023-05-05T04:38:32.498Z,1109.00
2023-05-05T04:39:32.515Z,1094.00
2023-05-05T04:40:32.532Z,1104.00
2023-05-05T04:41:32.617Z,1107.00
2023-05-05T04:42:32.756Z,1094.00
2023-05-05T04:43:32.740Z,1090.00
2023-05-05T04:44:32.752Z,1112.00
2023-05-05T04:45:32.768Z,1108.00
2023-05-05T04:46:32.856Z,1121.00
2023-05-05T04:47:32.980Z,1108.00
2023-05-05T04:48:32.909Z,1105.00
2023-05-05T04:49:32.938Z,1098.00
2023-05-05T04:50:32.988Z,1081.00
2023-05-05T04:51:33.011Z,1093.00
2023-05-05T04:52:33.056Z,1103.00
2023-05-05T04:53:33.119Z,1114.00
2023-05-05T04:54:33.150Z,1109.00
2023-05-05T04:55:33.177Z,1090.00
2023-05-05T04:56:33.276Z,1107.00
2023-05-05T04:57:33.324Z,1107.00
2023-05-05T04:58:33.381Z,1092.00
2023-05-05T04:59:33.388Z,1095.00
2023-05-05T05:00:33.469Z,1107.00
2023-05-05T05:01:40.658Z,1100.00
2023-05-05T05:02:33.730Z,1102.00
2023-05-05T05:03:33.716Z,1104.00
2023-05-05T05:04:33.612Z,1111.00
2023-05-05T05:05:33.615Z,1118.00
2023-05-05T05:06:33.621Z,1120.00
2023-05-05T05:07:33.661Z,1118.00
2023-05-05T05:08:33.677Z,1142.00
2023-05-05T05:09:34.735Z,1123.00
2023-05-05T05:10:34.666Z,1129.00
2023-05-05T05:11:33.745Z,1132.00
2023-05-05T05:12:33.827Z,1126.00
2023-05-05T05:13:33.818Z,1123.00
2023-05-05T05:14:33.802Z,1127.00
2023-05-05T05:15:33.824Z,1137.00
2023-05-05T05:16:33.951Z,1143.00
2023-05-05T05:17:33.923Z,1145.00
2023-05-05T05:18:33.890Z,1140.00
2023-05-05T05:19:33.901Z,1125.00
2023-05-05T05:20:33.910Z,1128.00
2023-05-05T05:21:33.966Z,1140.00
2023-05-05T05:22:33.965Z,1124.00
2023-05-05T05:23:33.993Z,1134.00
2023-05-05T05:24:33.987Z,1139.00
2023-05-05T05:25:34.062Z,1145.00
2023-05-05T05:26:34.082Z,1125.00
2023-05-05T05:27:34.163Z,1140.00
2023-05-05T05:28:34.168Z,1137.00
2023-05-05T05:29:34.159Z,1143.00
2023-05-05T05:30:34.232Z,1176.00
2023-05-05T05:31:34.320Z,1209.00
2023-05-05T05:32:34.752Z,1258.00
2023-05-05T05:33:34.332Z,1302.00
2023-05-05T05:34:34.410Z,1340.00
2023-05-05T05:35:34.451Z,1374.00
2023-05-05T05:36:34.582Z,1383.00
2023-05-05T05:37:34.608Z,1376.00
2023-05-05T05:38:34.604Z,1407.00
2023-05-05T05:39:34.648Z,1427.00
2023-05-05T05:40:34.665Z,1454.00
2023-05-05T05:41:34.696Z,1484.00
2023-05-05T05:42:34.748Z,1449.00
2023-05-05T05:43:34.808Z,1372.00
2023-05-05T05:44:34.805Z,1323.00
2023-05-05T05:45:34.889Z,1334.00
2023-05-05T05:46:41.992Z,1243.00
2023-05-05T05:47:35.217Z,1244.00
2023-05-05T05:48:35.071Z,1252.00
2023-05-05T05:49:35.126Z,1280.00
2023-05-05T05:50:35.206Z,1301.00
2023-05-05T05:51:35.185Z,1342.00
2023-05-05T05:52:35.241Z,1382.00
2023-05-05T05:53:35.342Z,1423.00
2023-05-05T05:54:35.337Z,1408.00
2023-05-05T05:55:35.375Z,1434.00
2023-05-05T05:56:35.425Z,1363.00
2023-05-05T05:57:35.475Z,1279.00
2023-05-05T05:58:35.524Z,1197.00
2023-05-05T05:59:35.545Z,1096.00
2023-05-05T06:00:35.575Z,1106.00
2023-05-05T06:01:35.641Z,1126.00
2023-05-05T06:02:35.760Z,1281.00
2023-05-05T06:03:35.879Z,1512.00
2023-05-05T06:04:35.861Z,1488.00
2023-05-05T06:05:35.805Z,1613.00
2023-05-05T06:06:35.837Z,1758.00
2023-05-05T06:07:35.886Z,1767.00
2023-05-05T06:08:35.916Z,1832.00
2023-05-05T06:09:36.001Z,1760.00
2023-05-05T06:10:36.074Z,1758.00
2023-05-05T06:11:36.020Z,1539.00
2023-05-05T06:12:36.113Z,1462.00
2023-05-05T06:13:36.132Z,1490.00
2023-05-05T06:14:36.161Z,1418.00
2023-05-05T06:15:36.198Z,1394.00
2023-05-05T06:16:36.214Z,1351.00
2023-05-05T06:17:36.243Z,1360.00
2023-05-05T06:18:36.279Z,1302.00
2023-05-05T06:19:36.308Z,1270.00
2023-05-05T06:20:36.350Z,1310.00
2023-05-05T06:21:36.370Z,1288.00
2023-05-05T06:22:36.393Z,1200.00
2023-05-05T06:23:36.449Z,1159.00
2023-05-05T06:24:36.434Z,1173.00
2023-05-05T06:25:36.464Z,1141.00
2023-05-05T06:26:36.510Z,1100.00
2023-05-05T06:27:36.535Z,1048.00
2023-05-05T06:28:36.548Z,873.00
2023-05-05T06:29:36.603Z,742.00
2023-05-05T06:30:36.643Z,814.00
2023-05-05T06:31:36.767Z,866.00
2023-05-05T06:32:36.813Z,982.00
2023-05-05T06:33:36.821Z,982.00
2023-05-05T06:34:36.907Z,926.00
2023-05-05T06:35:36.996Z,889.00
2023-05-05T06:36:37.216Z,734.00
2023-05-05T06:37:37.127Z,639.00
2023-05-05T06:38:37.251Z,604.00
2023-05-05T06:39:37.316Z,592.00
2023-05-05T06:40:37.371Z,658.00
2023-05-05T06:41:37.455Z,654.00
2023-05-05T06:42:37.508Z,625.00
2023-05-05T06:43:37.508Z,651.00
2023-05-05T06:44:37.632Z,725.00
2023-05-05T06:45:37.642Z,716.00
2023-05-05T06:46:38.669Z,658.00
2023-05-05T06:47:37.878Z,708.00
2023-05-05T06:48:37.859Z,722.00
2023-05-05T06:49:37.906Z,729.00
2023-05-05T06:50:38.097Z,665.00
2023-05-05T06:51:38.061Z,625.00
2023-05-05T06:52:38.202Z,616.00
2023-05-05T06:53:38.206Z,620.00
2023-05-05T06:54:38.298Z,604.00
2023-05-05T06:55:38.372Z,595.00
2023-05-05T06:56:38.400Z,596.00
2023-05-05T06:57:38.742Z,582.00
2023-05-05T06:58:38.505Z,568.00
2023-05-05T06:59:38.590Z,552.00
2023-05-05T07:00:38.691Z,490.00
2023-05-05T07:01:38.665Z,501.00
2023-05-05T07:02:38.962Z,500.00
2023-05-05T07:03:38.885Z,503.00
2023-05-05T07:04:38.901Z,545.00
2023-05-05T07:05:38.967Z,616.00
2023-05-05T07:06:39.002Z,648.00
2023-05-05T07:07:39.057Z,643.00
2023-05-05T07:08:39.104Z,729.00
2023-05-05T07:09:39.182Z,802.00
2023-05-05T07:10:39.301Z,778.00
2023-05-05T07:11:39.244Z,879.00
2023-05-05T07:12:39.455Z,930.00
2023-05-05T07:13:39.328Z,943.00
2023-05-05T07:14:39.403Z,1042.00
2023-05-05T07:15:39.451Z,1132.00
2023-05-05T07:16:39.541Z,1128.00
2023-05-05T07:17:39.653Z,1195.00
2023-05-05T07:18:39.542Z,1188.00
2023-05-05T07:19:39.590Z,1155.00
2023-05-05T07:20:39.589Z,1270.00
2023-05-05T07:21:39.708Z,1362.00
2023-05-05T07:22:39.689Z,1365.00
2023-05-05T07:23:39.745Z,1319.00
2023-05-05T07:24:39.787Z,1266.00
2023-05-05T07:25:39.833Z,1225.00
2023-05-05T07:26:39.868Z,1299.00
2023-05-05T07:27:39.864Z,1304.00
2023-05-05T07:28:39.876Z,1386.00
2023-05-05T07:29:39.993Z,1418.00
2023-05-05T07:30:40.006Z,1438.00
2023-05-05T07:31:40.046Z,1484.00
2023-05-05T07:32:40.133Z,1517.00
2023-05-05T07:33:40.251Z,1607.00
2023-05-05T07:34:40.209Z,1661.00
2023-05-05T07:35:40.235Z,1555.00
2023-05-05T07:36:40.296Z,1218.00
2023-05-05T07:37:40.385Z,941.00
2023-05-05T07:38:40.421Z,959.00
2023-05-05T07:39:40.464Z,1004.00
2023-05-05T07:40:40.502Z,1192.00
2023-05-05T07:41:40.574Z,932.00
2023-05-05T07:42:40.619Z,938.00
2023-05-05T07:43:41.715Z,988.00
2023-05-05T07:44:41.057Z,1212.00
2023-05-05T07:45:41.151Z,1329.00
2023-05-05T07:46:40.833Z,1417.00
2023-05-05T07:47:40.903Z,1443.00
2023-05-05T07:48:41.468Z,1421.00
2023-05-05T07:49:41.173Z,1453.00
2023-05-05T07:50:41.099Z,1513.00
2023-05-05T07:51:41.127Z,1511.00
2023-05-05T07:52:46.559Z,1525.00
2023-05-05T07:53:42.211Z,1528.00
2023-05-05T07:54:41.206Z,1541.00
2023-05-05T07:55:41.231Z,1553.00
2023-05-05T07:56:41.231Z,1557.00
2023-05-05T07:57:41.245Z,1581.00
2023-05-05T07:58:41.251Z,1549.00
2023-05-05T07:59:41.230Z,1487.00
2023-05-05T08:00:41.285Z,1422.00
2023-05-05T08:01:41.286Z,1356.00
2023-05-05T08:02:41.881Z,1340.00
2023-05-05T08:03:41.523Z,1375.00
2023-05-05T08:04:41.417Z,1285.00
2023-05-05T08:05:41.494Z,1254.00
2023-05-05T08:06:41.408Z,1159.00
2023-05-05T08:07:41.791Z,1143.00
2023-05-05T08:08:41.571Z,1116.00
2023-05-05T08:09:41.583Z,1151.00
2023-05-05T08:10:41.710Z,1303.00
2023-05-05T08:11:41.650Z,1391.00
2023-05-05T08:12:41.731Z,1322.00
2023-05-05T08:13:41.766Z,1190.00
2023-05-05T08:14:41.783Z,1194.00
2023-05-05T08:15:41.867Z,1181.00
2023-05-05T08:16:41.991Z,1097.00
2023-05-05T08:17:41.932Z,1083.00
2023-05-05T08:18:41.969Z,1049.00
2023-05-05T08:19:42.032Z,1044.00
2023-05-05T08:20:42.079Z,1072.00
2023-05-05T08:21:42.174Z,1090.00
2023-05-05T08:22:42.115Z,1181.00
2023-05-05T08:23:42.148Z,1235.00
2023-05-05T08:24:42.142Z,1240.00
2023-05-05T08:25:42.190Z,1234.00
2023-05-05T08:26:42.210Z,1269.00
2023-05-05T08:27:42.300Z,1320.00
2023-05-05T08:28:42.274Z,1365.00
2023-05-05T08:29:42.309Z,1373.00
2023-05-05T08:30:42.355Z,1416.00
2023-05-05T08:31:42.377Z,1471.00
2023-05-05T08:32:42.790Z,1507.00
2023-05-05T08:33:42.449Z,1611.00
2023-05-05T08:34:42.475Z,1649.00
2023-05-05T08:35:42.467Z,1640.00
2023-05-05T08:36:42.480Z,1480.00
2023-05-05T08:37:43.042Z,1254.00
2023-05-05T08:38:42.580Z,653.00
2023-05-05T08:39:42.674Z,436.00
2023-05-05T08:40:42.665Z,606.00
2023-05-05T08:41:42.741Z,518.00
2023-05-05T08:42:43.299Z,474.00
2023-05-05T08:43:42.848Z,420.00
2023-05-05T08:44:42.857Z,471.00
2023-05-05T08:45:42.910Z,400.00
2023-05-05T08:46:42.985Z,462.00
2023-05-05T08:47:43.123Z,515.00
2023-05-05T08:48:43.089Z,483.00
2023-05-05T08:49:43.154Z,400.00
2023-05-05T08:50:43.198Z,414.00
2023-05-05T08:51:43.228Z,598.00
2023-05-05T08:52:43.477Z,531.00
2023-05-05T08:53:43.881Z,496.00
2023-05-05T08:54:43.423Z,661.00
2023-05-05T08:55:43.474Z,596.00
2023-05-05T08:56:43.587Z,693.00
2023-05-05T08:57:43.581Z,712.00
2023-05-05T08:58:43.615Z,513.00
2023-05-05T08:59:43.663Z,579.00
2023-05-05T09:00:43.789Z,599.00
2023-05-05T09:01:43.788Z,577.00
2023-05-05T09:02:44.089Z,567.00
2023-05-05T09:03:43.890Z,939.00
2023-05-05T09:04:44.014Z,1106.00
2023-05-05T09:05:44.003Z,1166.00
2023-05-05T09:06:44.066Z,1285.00
2023-05-05T09:07:44.252Z,1351.00
2023-05-05T09:08:44.268Z,1418.00
2023-05-05T09:09:44.262Z,1489.00
2023-05-05T09:10:44.245Z,1574.00
2023-05-05T09:11:44.257Z,1687.00
2023-05-05T09:12:44.314Z,1720.00
2023-05-05T09:13:45.312Z,1797.00
2023-05-05T09:14:44.404Z,1900.00
2023-05-05T09:15:44.420Z,1939.00
2023-05-05T09:16:44.432Z,1993.00
2023-05-05T09:17:44.585Z,2109.00
2023-05-05T09:18:44.461Z,2221.00
2023-05-05T09:19:44.542Z,2328.00
2023-05-05T09:20:44.497Z,2313.00
2023-05-05T09:21:45.287Z,2292.00
2023-05-05T09:22:44.577Z,2321.00
2023-05-05T09:23:44.554Z,2334.00
2023-05-05T09:24:44.582Z,2310.00
2023-05-05T09:25:44.710Z,2292.00
2023-05-05T09:26:44.695Z,2281.00
2023-05-05T09:27:44.594Z,2287.00
2023-05-05T09:28:44.658Z,2289.00
2023-05-05T09:29:44.695Z,2241.00
2023-05-05T09:30:44.737Z,2199.00
2023-05-05T09:31:44.737Z,2124.00
2023-05-05T09:32:44.917Z,2130.00
2023-05-05T09:33:44.816Z,2195.00
2023-05-05T09:34:44.843Z,2287.00
2023-05-05T09:35:44.801Z,2290.00
2023-05-05T09:36:45.013Z,2257.00
2023-05-05T09:37:45.211Z,2323.00
2023-05-05T09:38:45.066Z,2350.00
2023-05-05T09:39:44.893Z,2184.00
2023-05-05T09:40:44.912Z,1986.00
2023-05-05T09:41:44.980Z,1989.00
2023-05-05T09:42:45.071Z,1897.00
2023-05-05T09:43:45.307Z,1988.00
2023-05-05T09:44:44.973Z,1963.00
2023-05-05T09:45:45.013Z,2083.00
2023-05-05T09:46:45.039Z,1724.00
2023-05-05T09:47:45.052Z,1427.00
2023-05-05T09:48:45.024Z,1655.00
2023-05-05T09:49:45.071Z,1771.00
2023-05-05T09:50:45.069Z,1314.00
2023-05-05T09:51:45.123Z,1468.00
2023-05-05T09:52:45.795Z,1574.00
2023-05-05T09:53:45.709Z,1590.00
2023-05-05T09:54:45.157Z,1687.00
2023-05-05T09:55:45.184Z,1761.00
2023-05-05T09:56:45.233Z,1776.00
2023-05-05T09:57:45.424Z,1757.00
2023-05-05T09:58:45.276Z,1717.00
2023-05-05T09:59:45.313Z,1679.00
2023-05-05T10:00:45.341Z,1730.00
2023-05-05T10:01:45.398Z,1592.00
2023-05-05T10:02:45.436Z,1441.00
2023-05-05T10:03:45.402Z,1514.00
2023-05-05T10:04:45.431Z,1733.00
2023-05-05T10:05:45.444Z,1820.00
2023-05-05T10:06:45.467Z,1814.00
2023-05-05T10:07:45.449Z,1814.00
2023-05-05T10:08:45.532Z,1799.00
2023-05-05T10:09:45.503Z,1552.00
2023-05-05T10:10:45.552Z,1508.00
2023-05-05T10:11:45.588Z,1718.00
2023-05-05T10:12:45.580Z,1785.00
2023-05-05T10:13:45.780Z,1676.00
2023-05-05T10:14:45.617Z,1586.00
2023-05-05T10:15:45.713Z,1744.00
2023-05-05T10:16:45.788Z,1803.00
2023-05-05T10:17:57.842Z,1627.00
2023-05-05T10:18:46.700Z,1627.00
2023-05-05T10:19:45.646Z,1589.00
2023-05-05T10:20:45.667Z,1598.00
2023-05-05T10:21:45.657Z,1581.00
2023-05-05T10:22:45.630Z,1620.00
2023-05-05T10:23:45.643Z,1445.00
2023-05-05T10:24:45.625Z,1529.00
2023-05-05T10:25:45.606Z,1452.00
2023-05-05T10:26:45.629Z,1589.00
2023-05-05T10:27:45.622Z,1607.00
2023-05-05T10:28:45.822Z,1651.00
2023-05-05T10:29:45.630Z,1581.00
2023-05-05T10:30:45.631Z,1559.00
2023-05-05T10:31:45.635Z,1521.00
2023-05-05T10:32:59.380Z,1554.00
2023-05-05T10:33:46.782Z,1499.00
2023-05-05T10:34:45.654Z,1528.00
2023-05-05T10:35:45.623Z,1572.00
2023-05-05T10:36:45.605Z,1406.00
2023-05-05T10:37:45.641Z,1289.00
2023-05-05T10:38:45.805Z,647.00
2023-05-05T10:39:45.616Z,730.00
2023-05-05T10:40:45.588Z,911.00
2023-05-05T10:41:45.596Z,1116.00
2023-05-05T10:42:45.566Z,802.00
2023-05-05T10:43:45.806Z,547.00
2023-05-05T10:44:45.589Z,514.00
2023-05-05T10:45:45.685Z,442.00
2023-05-05T10:46:45.623Z,619.00
2023-05-05T10:47:45.600Z,607.00
2023-05-05T10:48:45.900Z,804.00
2023-05-05T10:49:45.573Z,845.00
2023-05-05T10:50:45.590Z,916.00
2023-05-05T10:51:45.560Z,628.00
2023-05-05T10:52:45.620Z,667.00
2023-05-05T10:53:45.665Z,855.00
2023-05-05T10:54:45.823Z,639.00
2023-05-05T10:55:45.664Z,637.00
2023-05-05T10:56:45.703Z,425.00
2023-05-05T10:57:45.719Z,400.00
2023-05-05T10:58:58.834Z,400.00
2023-05-05T10:59:46.747Z,402.00
2023-05-05T11:00:45.779Z,424.00
2023-05-05T11:01:45.734Z,473.00
2023-05-05T11:02:45.759Z,559.00
2023-05-05T11:03:45.855Z,496.00
2023-05-05T11:04:45.759Z,400.00
2023-05-05T11:05:45.749Z,400.00
2023-05-05T11:06:45.798Z,437.00
2023-05-05T11:07:45.806Z,533.00
2023-05-05T11:08:45.781Z,638.00
2023-05-05T11:09:45.786Z,941.00
2023-05-05T11:10:45.774Z,965.00
2023-05-05T11:11:45.805Z,1145.00
2023-05-05T11:12:45.844Z,748.00
2023-05-05T11:13:45.756Z,585.00
2023-05-05T11:14:45.797Z,515.00
2023-05-05T11:15:45.774Z,567.00
2023-05-05T11:16:45.905Z,618.00
2023-05-05T11:17:45.844Z,642.00
2023-05-05T11:18:45.785Z,626.00
2023-05-05T11:19:45.820Z,664.00
2023-05-05T11:20:45.796Z,749.00
2023-05-05T11:21:45.833Z,922.00
2023-05-05T11:22:45.869Z,905.00
2023-05-05T11:23:45.893Z,790.00
2023-05-05T11:24:45.887Z,751.00
2023-05-05T11:25:45.952Z,722.00
2023-05-05T11:26:45.960Z,901.00
2023-05-05T11:27:46.028Z,1090.00
2023-05-05T11:28:46.069Z,1158.00
2023-05-05T11:29:46.081Z,1178.00
2023-05-05T11:30:46.179Z,1178.00
2023-05-05T11:31:46.181Z,1267.00
2023-05-05T11:32:46.299Z,1312.00
2023-05-05T11:33:46.308Z,1260.00
2023-05-05T11:34:46.348Z,1216.00
2023-05-05T11:35:46.324Z,1377.00
2023-05-05T11:36:46.414Z,1461.00
2023-05-05T11:37:46.515Z,1463.00
2023-05-05T11:38:46.524Z,1315.00
2023-05-05T11:39:46.623Z,1273.00
2023-05-05T11:40:46.662Z,1279.00
2023-05-05T11:41:46.723Z,1348.00
2023-05-05T11:42:46.760Z,1412.00
2023-05-05T11:43:46.789Z,1357.00
2023-05-05T11:44:46.852Z,1296.00
2023-05-05T11:45:46.879Z,1228.00
2023-05-05T11:46:46.906Z,1277.00
2023-05-05T11:47:47.008Z,1360.00
2023-05-05T11:48:47.018Z,1455.00
2023-05-05T11:49:47.285Z,1549.00
2023-05-05T11:50:47.110Z,1682.00
2023-05-05T11:51:47.147Z,1702.00
2023-05-05T11:52:47.170Z,1683.00
2023-05-05T11:53:47.210Z,1704.00
2023-05-05T11:54:47.213Z,1582.00
2023-05-05T11:55:47.251Z,1525.00
2023-05-05T11:56:47.295Z,1664.00
2023-05-05T11:57:47.338Z,1790.00
2023-05-05T11:58:47.369Z,1903.00
2023-05-05T11:59:49.409Z,1942.00
2023-05-05T12:00:47.487Z,1966.00
2023-05-05T12:01:47.498Z,1968.00
2023-05-05T12:02:47.637Z,1948.00
2023-05-05T12:03:47.660Z,1950.00
2023-05-05T12:04:47.941Z,2037.00
2023-05-05T12:05:47.662Z,2023.00
2023-05-05T12:06:47.709Z,2050.00
2023-05-05T12:07:47.710Z,2048.00
2023-05-05T12:08:47.741Z,1960.00
2023-05-05T12:09:47.797Z,1794.00
2023-05-05T12:10:47.809Z,1842.00
2023-05-05T12:11:47.844Z,1948.00
2023-05-05T12:12:48.230Z,2014.00
2023-05-05T12:13:47.903Z,2020.00